Reedsburg, WI (53959)

1:18 AM CST on December 27, 2014 (GMT -0600)
Reedsburg Muni, Reedsburg, WI | Change Station
CLOSE
Current Station
Airport
Location: Reedsburg Muni, Reedsburg, WI,
Elevation: 906 ft
Nearby Weather Stations

Elev 906 ft 43.53 °N, 89.98 °W | Updated 23 minutes ago

Overcast
Overcast
32 °F
Feels Like 29 °F
N
4
Wind Variable Wind from East

Today
High -- | Low -- °F
--% Chance of Precip.
Yesterday
High -- | Low -- °F
Precip. -- in
7:32 AM 4:30 PM
Waxing Crescent, 33% visible
Pressure 29.94 in
Visibility 5.0 miles
Clouds Overcast 300 ft
Windchill 29 °F
Dew Point 32 °F
Humidity 99%
Rainfall 0.00 in
Snow Depth Not available.
UV 0 out of 12
Pollen .10 out of 12
Air Quality Not available.
Flu Activity Not available.
METAR KC35 270655Z AUTO 08003KT 5SM BR OVC003 00/00 A2994 RMK AO2 T00001002

More Conditions Fewer Conditions

Pressure 29.94 in
Visibility 5.0 miles
Clouds Overcast 300 ft
Windchill 29 °F
Dew Point 32 °F
Humidity 99%
Rainfall 0.00 in
Snow Depth Not available.
UV 0 out of 12
Pollen .10 out of 12
Air Quality Not available.
Flu Activity Not available.
METAR KC35 270655Z AUTO 08003KT 5SM BR OVC003 00/00 A2994 RMK AO2 T00001002

More Conditions Fewer Conditions

10-Day Weather Forecast

Almanac

Astronomy

Dec. 27, 2014 Rise Set
Actual Time
Civil Twilight
Nautical Twilight
Astronomical Twilight
Moon
Length of Visible Light
Length of Day
Tomorrow will be .
, % of the Moon is Illuminated

Today's Extremes

State Highs State Lows

Community

WunderPhotos

Upload Photos

1,780,863 photos uploaded!

WunderBlogs® & News

Nearby

Air Quality

  Air Quality AQ Index Pollutant
Not available.

Snow Depth

Station Depth Elevation

Earthquake Activity

City Distance Mag. Time & Date
Minimum magnitude displayed is 2.5.

Coastal Water Temperatures

Place Temperature

Nearby Weather Stations